createdAt,value
2018-11-12T04:25:43.614Z,4.00
2018-11-12T04:26:43.607Z,4.00
2018-11-12T04:27:43.596Z,4.00
2018-11-12T04:28:43.581Z,4.00
2018-11-12T04:29:43.568Z,4.00
2018-11-12T04:30:43.560Z,4.00
2018-11-12T04:31:43.551Z,4.00
2018-11-12T04:32:43.538Z,4.00
2018-11-12T04:33:43.533Z,4.00
2018-11-12T04:34:43.519Z,4.00
2018-11-12T04:35:43.506Z,4.00
2018-11-12T04:36:43.491Z,4.00
2018-11-12T04:37:43.481Z,4.00
2018-11-12T04:38:43.466Z,4.00
2018-11-12T04:39:43.457Z,4.00
2018-11-12T04:40:43.447Z,4.00
2018-11-12T04:41:43.447Z,4.00
2018-11-12T04:42:43.421Z,4.00
2018-11-12T04:43:43.411Z,4.00
2018-11-12T04:44:43.402Z,4.00
2018-11-12T04:45:43.474Z,4.00
2018-11-12T04:46:43.376Z,4.00
2018-11-12T04:47:43.368Z,4.00
2018-11-12T04:48:43.362Z,4.00
2018-11-12T04:49:43.349Z,4.00
2018-11-12T04:50:43.334Z,4.00
2018-11-12T04:51:43.322Z,4.00
2018-11-12T04:52:43.309Z,4.00
2018-11-12T04:53:43.440Z,4.00
2018-11-12T04:54:43.290Z,4.00
2018-11-12T04:55:43.277Z,4.00
2018-11-12T04:56:43.267Z,4.00
2018-11-12T04:57:43.260Z,4.00
2018-11-12T04:58:43.244Z,4.00
2018-11-12T04:59:43.235Z,4.00
2018-11-12T05:00:43.226Z,4.00
2018-11-12T05:01:43.219Z,4.00
2018-11-12T05:02:43.198Z,4.00
2018-11-12T05:03:43.188Z,4.00
2018-11-12T05:04:43.176Z,4.00
2018-11-12T05:05:43.171Z,4.00
2018-11-12T05:06:43.164Z,4.00
2018-11-12T05:07:43.235Z,4.00
2018-11-12T05:08:43.134Z,4.00
2018-11-12T05:09:43.120Z,4.00
2018-11-12T05:10:43.108Z,4.00
2018-11-12T05:11:43.108Z,4.00
2018-11-12T05:12:43.092Z,4.00
2018-11-12T05:13:43.083Z,4.00
2018-11-12T05:14:43.064Z,4.00
2018-11-12T05:15:43.052Z,4.00
2018-11-12T05:16:43.156Z,4.00
2018-11-12T05:17:43.033Z,20.00
2018-11-12T05:18:43.018Z,48.00
2018-11-12T05:19:43.006Z,56.00
2018-11-12T05:20:42.999Z,56.00
2018-11-12T05:21:42.988Z,4.00
2018-11-12T05:22:42.974Z,4.00
2018-11-12T05:23:42.969Z,4.00
2018-11-12T05:24:42.954Z,4.00
2018-11-12T05:25:42.941Z,4.00
2018-11-12T05:26:42.928Z,4.00
2018-11-12T05:27:42.917Z,4.00
2018-11-12T05:28:42.906Z,4.00
2018-11-12T05:29:42.894Z,4.00
2018-11-12T05:30:42.888Z,4.00
2018-11-12T05:31:42.897Z,4.00
2018-11-12T05:32:42.861Z,4.00
2018-11-12T05:33:42.852Z,4.00
2018-11-12T05:34:42.840Z,4.00
2018-11-12T05:35:42.829Z,4.00
2018-11-12T05:36:42.820Z,4.00
2018-11-12T05:37:42.877Z,4.00
2018-11-12T05:38:42.794Z,4.00
2018-11-12T05:39:42.787Z,4.00
2018-11-12T05:40:42.774Z,4.00
2018-11-12T05:41:42.760Z,4.00
2018-11-12T05:42:42.756Z,4.00
2018-11-12T05:43:42.737Z,4.00
2018-11-12T05:44:42.764Z,4.00
2018-11-12T05:47:42.693Z,4.00
2018-11-12T05:48:42.685Z,4.00
2018-11-12T05:49:42.674Z,4.00
2018-11-12T05:50:42.661Z,4.00
2018-11-12T05:51:42.799Z,4.00
2018-11-12T05:52:42.644Z,4.00
2018-11-12T05:53:42.629Z,8.00
2018-11-12T05:54:42.615Z,4.00
2018-11-12T05:55:42.604Z,8.00
2018-11-12T05:56:42.591Z,8.00
2018-11-12T05:57:42.580Z,12.00
2018-11-12T05:58:42.576Z,12.00
2018-11-12T05:59:42.559Z,16.00
2018-11-12T06:00:42.546Z,20.00
2018-11-12T06:01:42.535Z,20.00
2018-11-12T06:02:42.524Z,24.00
2018-11-12T06:03:42.520Z,24.00
2018-11-12T06:04:42.556Z,32.00
2018-11-12T06:05:42.491Z,36.00
2018-11-12T06:06:42.480Z,40.00
2018-11-12T06:07:42.467Z,44.00
2018-11-12T06:08:42.461Z,48.00
2018-11-12T06:09:42.449Z,52.00
2018-11-12T06:10:42.434Z,60.00
2018-11-12T06:11:42.431Z,64.00
2018-11-12T06:12:42.415Z,76.00
2018-11-12T06:13:42.405Z,84.00
2018-11-12T06:14:42.393Z,92.00
2018-11-12T06:15:42.378Z,100.00
2018-11-12T06:16:42.373Z,112.00
2018-11-12T06:17:42.363Z,128.00
2018-11-12T06:18:42.349Z,140.00
2018-11-12T06:19:42.335Z,152.00
2018-11-12T06:20:42.322Z,172.00
2018-11-12T06:21:42.311Z,188.00
2018-11-12T06:22:42.412Z,204.00
2018-11-12T06:23:42.291Z,224.00
2018-11-12T06:24:42.280Z,240.00
2018-11-12T06:25:42.277Z,260.00
2018-11-12T06:26:42.262Z,280.00
2018-11-12T06:27:42.250Z,304.00
2018-11-12T06:28:42.233Z,340.00
2018-11-12T06:29:42.224Z,372.00
2018-11-12T06:30:42.214Z,408.00
2018-11-12T06:31:42.199Z,456.00
2018-11-12T06:32:42.189Z,512.00
2018-11-12T06:33:42.177Z,572.00
2018-11-12T06:34:42.167Z,628.00
2018-11-12T06:35:42.156Z,672.00
2018-11-12T06:36:42.167Z,712.00
2018-11-12T06:37:42.131Z,748.00
2018-11-12T06:38:42.121Z,780.00
2018-11-12T06:39:42.108Z,804.00
2018-11-12T06:40:42.099Z,828.00
2018-11-12T06:41:42.086Z,856.00
2018-11-12T06:42:42.220Z,884.00
2018-11-12T06:43:42.063Z,924.00
2018-11-12T06:44:42.053Z,980.00
2018-11-12T06:45:42.042Z,1044.00
2018-11-12T06:46:42.032Z,1116.00
2018-11-12T06:47:42.019Z,1220.00
2018-11-12T06:48:42.007Z,1340.00
2018-11-12T06:49:41.998Z,1476.00
2018-11-12T06:50:41.987Z,1616.00
2018-11-12T06:51:41.978Z,1756.00
2018-11-12T06:52:41.979Z,1872.00
2018-11-12T06:53:41.952Z,1976.00
2018-11-12T06:54:41.941Z,2084.00
2018-11-12T06:55:41.929Z,2216.00
2018-11-12T06:56:41.917Z,2336.00
2018-11-12T06:57:41.907Z,2440.00
2018-11-12T06:58:41.897Z,2512.00
2018-11-12T06:59:41.883Z,2552.00
2018-11-12T07:00:41.919Z,2552.00
2018-11-12T07:01:41.861Z,2536.00
2018-11-12T07:02:41.854Z,2520.00
2018-11-12T07:03:41.845Z,2524.00
2018-11-12T07:04:41.829Z,2536.00
2018-11-12T07:05:41.819Z,2560.00
2018-11-12T07:06:41.841Z,2616.00
2018-11-12T07:07:41.796Z,2712.00
2018-11-12T07:08:41.784Z,2828.00
2018-11-12T07:09:41.780Z,2980.00
2018-11-12T07:10:41.762Z,3156.00
2018-11-12T07:11:41.751Z,3304.00
2018-11-12T07:12:41.739Z,3416.00
2018-11-12T07:13:41.731Z,3480.00
2018-11-12T07:14:41.718Z,3528.00
2018-11-12T07:15:41.710Z,3580.00
2018-11-12T07:16:41.698Z,3612.00
2018-11-12T07:17:41.687Z,3832.00
2018-11-12T07:18:41.694Z,3932.00
2018-11-12T07:19:41.665Z,4004.00
2018-11-12T07:20:41.654Z,4076.00
2018-11-12T07:21:41.639Z,4136.00
2018-11-12T07:22:41.628Z,4148.00
2018-11-12T07:23:41.616Z,4136.00
2018-11-12T07:24:41.607Z,4008.00
2018-11-12T07:25:41.591Z,3748.00
2018-11-12T07:26:41.581Z,3508.00
2018-11-12T07:27:41.575Z,3328.00
2018-11-12T07:28:41.558Z,3160.00
2018-11-12T07:29:41.547Z,2980.00
2018-11-12T07:30:41.660Z,2732.00
2018-11-12T07:31:41.531Z,2664.00
2018-11-12T07:32:41.513Z,2592.00
2018-11-12T07:33:41.504Z,2532.00
2018-11-12T07:34:41.494Z,2528.00
2018-11-12T07:35:41.490Z,2496.00
2018-11-12T07:36:41.470Z,2408.00
2018-11-12T07:37:41.458Z,2388.00
2018-11-12T07:38:41.447Z,2404.00
2018-11-12T07:39:41.440Z,2444.00
2018-11-12T07:40:41.429Z,2524.00
2018-11-12T07:41:41.415Z,2600.00
2018-11-12T07:42:41.401Z,2696.00
2018-11-12T07:43:41.392Z,2812.00
2018-11-12T07:44:41.380Z,2936.00
2018-11-12T07:45:41.368Z,3072.00
2018-11-12T07:46:41.363Z,3164.00
2018-11-12T07:47:41.345Z,3228.00
2018-11-12T07:48:41.392Z,3252.00
2018-11-12T07:49:41.330Z,3272.00
2018-11-12T07:50:41.313Z,3244.00
2018-11-12T07:51:41.301Z,3112.00
2018-11-12T07:52:41.291Z,3044.00
2018-11-12T07:53:41.278Z,2928.00
2018-11-12T07:54:41.272Z,2856.00
2018-11-12T07:55:41.255Z,2832.00
2018-11-12T07:56:41.255Z,2860.00
2018-11-12T07:57:41.234Z,2952.00
2018-11-12T07:58:41.221Z,3104.00
2018-11-12T07:59:41.210Z,3312.00
2018-11-12T08:00:41.214Z,3548.00
2018-11-12T08:01:41.188Z,3788.00
2018-11-12T08:02:41.180Z,3988.00
2018-11-12T08:03:41.173Z,4124.00
2018-11-12T08:04:41.155Z,4200.00
2018-11-12T08:05:41.150Z,4232.00
2018-11-12T08:06:41.133Z,4200.00
2018-11-12T08:07:41.120Z,4100.00
2018-11-12T08:08:41.115Z,3916.00
2018-11-12T08:09:41.219Z,3708.00
2018-11-12T08:10:41.087Z,3524.00
2018-11-12T08:11:41.145Z,3380.00
2018-11-12T08:12:41.072Z,3288.00
2018-11-12T08:13:41.055Z,3220.00
2018-11-12T08:14:41.192Z,3180.00
2018-11-12T08:15:41.033Z,3152.00
2018-11-12T08:16:41.022Z,3120.00
2018-11-12T08:17:41.111Z,3092.00
2018-11-12T08:18:41.115Z,3048.00
2018-11-12T08:19:40.992Z,2980.00
2018-11-12T08:20:40.976Z,2976.00
2018-11-12T08:21:41.045Z,2880.00
2018-11-12T08:22:40.956Z,2800.00
2018-11-12T08:23:40.949Z,2700.00
2018-11-12T08:24:41.028Z,2564.00
2018-11-12T08:25:40.920Z,2404.00
2018-11-12T08:26:40.908Z,2232.00
2018-11-12T08:27:40.897Z,2080.00
2018-11-12T08:28:40.893Z,1952.00
2018-11-12T08:29:40.946Z,1876.00
2018-11-12T08:30:40.863Z,1840.00
2018-11-12T08:31:40.850Z,1832.00
2018-11-12T08:32:40.847Z,1856.00
2018-11-12T08:33:40.830Z,1904.00
2018-11-12T08:34:40.818Z,1972.00
2018-11-12T08:35:40.845Z,2048.00
2018-11-12T08:36:40.958Z,2136.00
2018-11-12T08:37:40.784Z,2240.00
2018-11-12T08:38:40.782Z,2388.00
2018-11-12T08:39:40.813Z,2552.00
2018-11-12T08:40:40.941Z,2760.00
2018-11-12T08:41:40.741Z,2944.00
2018-11-12T08:42:40.733Z,3060.00
2018-11-12T08:43:40.719Z,3084.00
2018-11-12T08:44:40.713Z,3044.00
2018-11-12T08:45:40.696Z,2960.00
2018-11-12T08:46:40.730Z,2844.00
2018-11-12T08:47:40.671Z,2724.00
2018-11-12T08:48:40.687Z,2616.00
2018-11-12T08:49:40.688Z,2528.00
2018-11-12T08:50:40.639Z,2452.00
2018-11-12T08:51:40.629Z,2384.00
2018-11-12T08:52:40.616Z,2320.00
2018-11-12T08:53:40.609Z,2260.00
2018-11-12T08:54:40.901Z,2216.00
2018-11-12T08:55:40.693Z,2208.00
2018-11-12T08:56:40.577Z,2260.00
2018-11-12T08:57:40.563Z,2348.00
2018-11-12T08:58:40.551Z,2456.00
2018-11-12T08:59:40.602Z,2580.00
2018-11-12T09:00:40.589Z,2716.00
2018-11-12T09:01:40.519Z,2876.00
2018-11-12T09:02:40.504Z,3052.00
2018-11-12T09:03:40.492Z,3228.00
2018-11-12T09:04:40.480Z,3368.00
2018-11-12T09:05:40.473Z,3472.00
2018-11-12T09:06:40.458Z,3548.00
2018-11-12T09:07:40.445Z,3660.00
2018-11-12T09:08:40.440Z,3864.00
2018-11-12T09:09:40.426Z,4180.00
2018-11-12T09:10:40.411Z,4564.00
2018-11-12T09:11:40.406Z,4880.00
2018-11-12T09:12:40.395Z,5032.00
2018-11-12T09:13:40.385Z,4984.00
2018-11-12T09:14:40.366Z,4856.00
2018-11-12T09:15:40.408Z,4808.00
2018-11-12T09:16:40.346Z,4864.00
2018-11-12T09:17:40.332Z,5028.00
2018-11-12T09:18:40.322Z,5192.00
2018-11-12T09:19:40.314Z,5248.00
2018-11-12T09:20:40.299Z,5288.00
2018-11-12T09:21:40.286Z,5384.00
2018-11-12T09:22:40.281Z,5416.00
2018-11-12T09:23:40.267Z,5292.00
2018-11-12T09:24:40.260Z,5092.00
2018-11-12T09:25:40.252Z,4932.00
2018-11-12T09:26:40.229Z,4808.00
2018-11-12T09:27:40.219Z,4728.00
2018-11-12T09:28:40.205Z,4676.00
2018-11-12T09:29:40.345Z,4660.00
2018-11-12T09:31:40.178Z,4600.00
2018-11-12T09:32:40.557Z,4480.00
2018-11-12T09:34:40.137Z,4228.00
2018-11-12T09:35:40.126Z,4152.00
2018-11-12T09:36:40.224Z,4104.00
2018-11-12T09:37:40.112Z,4176.00
2018-11-12T09:38:40.151Z,4344.00
2018-11-12T09:39:40.085Z,4592.00
2018-11-12T09:40:40.069Z,4948.00
2018-11-12T09:41:40.060Z,5508.00
2018-11-12T09:42:40.051Z,6316.00
2018-11-12T09:43:40.041Z,7004.00
2018-11-12T09:44:40.041Z,7928.00
2018-11-12T09:45:40.012Z,8904.00
2018-11-12T09:46:39.999Z,9564.00
2018-11-12T09:47:40.040Z,9468.00
2018-11-12T09:48:39.996Z,9444.00
2018-11-12T09:49:39.964Z,9752.00
2018-11-12T09:50:39.956Z,9792.00
2018-11-12T09:51:39.946Z,9760.00
2018-11-12T09:52:39.933Z,9488.00
2018-11-12T09:53:40.041Z,9420.00
2018-11-12T09:54:40.030Z,10256.00
2018-11-12T09:55:39.975Z,10484.00
2018-11-12T09:56:39.892Z,9992.00
2018-11-12T09:57:39.894Z,9456.00
2018-11-12T09:58:39.896Z,9092.00
2018-11-12T09:59:39.898Z,8692.00
2018-11-12T10:00:40.027Z,8372.00
2018-11-12T10:01:40.601Z,8232.00
2018-11-12T10:02:40.867Z,8112.00
2018-11-12T10:03:41.190Z,7952.00
2018-11-12T10:04:41.333Z,7748.00
2018-11-12T10:05:40.642Z,7552.00
2018-11-12T10:06:41.399Z,7568.00
2018-11-12T10:07:41.937Z,7944.00
2018-11-12T10:08:41.397Z,8432.00
2018-11-12T10:09:42.433Z,8784.00
2018-11-12T10:10:42.321Z,9276.00
2018-11-12T10:11:42.368Z,12736.00
2018-11-12T10:12:42.429Z,16116.00
2018-11-12T10:13:41.504Z,12808.00
2018-11-12T10:14:41.936Z,9956.00
2018-11-12T10:15:42.341Z,9704.00
2018-11-12T10:16:42.463Z,9232.00
2018-11-12T10:17:42.716Z,10904.00
2018-11-12T10:18:39.685Z,8200.00
2018-11-12T10:19:39.679Z,8352.00
2018-11-12T10:20:39.623Z,6808.00
2018-11-12T10:21:39.611Z,6320.00
2018-11-12T10:22:39.591Z,5788.00
2018-11-12T10:23:39.583Z,5572.00
2018-11-12T10:24:39.568Z,5568.00
2018-11-12T10:25:39.557Z,5428.00
2018-11-12T10:26:39.548Z,5000.00
2018-11-12T10:27:39.543Z,4412.00
2018-11-12T10:28:39.728Z,3912.00
2018-11-12T10:29:39.517Z,3608.00
2018-11-12T10:30:39.501Z,3484.00
2018-11-12T10:31:39.491Z,3496.00
2018-11-12T10:32:39.478Z,3512.00
2018-11-12T10:33:39.478Z,3544.00
2018-11-12T10:34:39.457Z,3672.00
2018-11-12T10:35:39.445Z,3884.00
2018-11-12T10:36:39.435Z,4144.00
2018-11-12T10:37:39.424Z,4416.00
2018-11-12T10:38:39.411Z,4472.00
2018-11-12T10:39:39.409Z,4396.00
2018-11-12T10:40:39.426Z,4396.00
2018-11-12T10:41:39.386Z,4436.00
2018-11-12T10:42:39.432Z,4516.00
2018-11-12T10:43:39.355Z,4620.00
2018-11-12T10:44:39.344Z,4672.00
2018-11-12T10:45:39.339Z,4724.00
2018-11-12T10:46:39.326Z,4704.00
2018-11-12T10:47:39.309Z,4496.00
2018-11-12T10:48:39.299Z,4200.00
2018-11-12T10:49:39.292Z,3964.00
2018-11-12T10:50:39.284Z,3848.00
2018-11-12T10:51:39.265Z,3740.00
2018-11-12T10:52:39.254Z,3776.00
2018-11-12T10:53:49.842Z,3804.00
2018-11-12T10:54:39.330Z,3804.00
2018-11-12T10:55:39.323Z,3664.00
2018-11-12T10:56:39.208Z,3464.00
2018-11-12T10:57:39.197Z,3200.00
2018-11-12T10:58:39.269Z,2976.00
2018-11-12T10:59:39.232Z,2880.00
2018-11-12T11:00:39.167Z,2876.00
2018-11-12T11:01:39.152Z,2908.00
2018-11-12T11:02:39.147Z,2836.00
2018-11-12T11:03:39.136Z,2688.00
2018-11-12T11:04:39.120Z,2636.00
2018-11-12T11:05:39.110Z,2616.00
2018-11-12T11:06:39.098Z,2536.00
2018-11-12T11:07:39.095Z,2600.00
2018-11-12T11:08:39.077Z,2760.00
2018-11-12T11:09:39.063Z,2860.00
2018-11-12T11:10:39.054Z,2880.00
2018-11-12T11:11:39.041Z,2848.00
2018-11-12T11:12:39.028Z,2860.00
2018-11-12T11:13:39.062Z,2976.00
2018-11-12T11:14:39.008Z,2960.00
2018-11-12T11:15:39.090Z,2832.00
2018-11-12T11:16:38.983Z,2704.00
2018-11-12T11:17:38.979Z,2312.00
2018-11-12T11:18:38.959Z,1828.00
2018-11-12T11:19:38.959Z,1548.00
2018-11-12T11:20:38.936Z,1640.00
2018-11-12T11:21:38.925Z,1968.00
2018-11-12T11:22:38.914Z,2208.00
2018-11-12T11:23:38.903Z,2268.00
2018-11-12T11:24:38.894Z,2560.00
2018-11-12T11:25:38.914Z,3060.00
2018-11-12T11:26:38.883Z,3816.00
2018-11-12T11:27:38.859Z,4832.00
2018-11-12T11:28:38.845Z,5648.00
2018-11-12T11:29:38.834Z,5880.00
2018-11-12T11:30:38.823Z,5728.00
2018-11-12T11:31:38.851Z,5364.00
2018-11-12T11:32:38.800Z,4964.00
2018-11-12T11:33:38.790Z,4648.00
2018-11-12T11:34:38.783Z,4540.00
2018-11-12T11:35:38.767Z,4384.00
2018-11-12T11:36:38.812Z,4020.00
2018-11-12T11:37:38.743Z,3432.00
2018-11-12T11:38:38.738Z,2876.00
2018-11-12T11:39:38.721Z,2652.00
2018-11-12T11:40:38.773Z,2700.00
2018-11-12T11:41:38.698Z,2824.00
2018-11-12T11:42:38.692Z,3064.00
2018-11-12T11:43:38.674Z,3456.00
2018-11-12T11:44:38.669Z,3876.00
2018-11-12T11:45:38.660Z,4240.00
2018-11-12T11:46:38.647Z,4640.00
2018-11-12T11:47:38.728Z,5004.00
2018-11-12T11:48:38.623Z,5212.00
2018-11-12T11:49:38.604Z,5168.00
2018-11-12T11:50:38.648Z,4988.00
2018-11-12T11:51:38.587Z,4832.00
2018-11-12T11:52:38.570Z,4752.00
2018-11-12T11:53:38.567Z,4764.00
2018-11-12T11:54:38.547Z,4828.00
2018-11-12T11:55:38.536Z,4952.00
2018-11-12T11:56:38.656Z,5128.00
2018-11-12T11:57:38.698Z,5380.00
2018-11-12T11:58:38.506Z,5660.00
2018-11-12T11:59:38.497Z,5876.00
2018-11-12T12:00:38.479Z,6160.00
2018-11-12T12:01:38.492Z,6540.00
2018-11-12T12:02:38.459Z,7104.00
2018-11-12T12:03:38.445Z,7468.00
2018-11-12T12:04:38.435Z,7428.00
2018-11-12T12:05:38.424Z,7640.00
2018-11-12T12:06:38.417Z,8720.00
2018-11-12T12:07:38.420Z,9644.00
2018-11-12T12:08:38.448Z,8244.00
2018-11-12T12:09:38.395Z,8792.00
2018-11-12T12:10:38.371Z,9636.00
2018-11-12T12:11:38.358Z,8176.00
2018-11-12T12:12:38.348Z,8364.00
2018-11-12T12:13:38.337Z,8384.00
2018-11-12T12:14:38.324Z,8692.00
2018-11-12T12:15:38.315Z,9540.00
2018-11-12T12:16:38.303Z,10984.00
2018-11-12T12:17:38.326Z,11116.00
2018-11-12T12:18:38.323Z,12196.00
2018-11-12T12:19:38.270Z,11604.00
2018-11-12T12:20:38.259Z,11808.00
2018-11-12T12:21:38.247Z,12068.00
2018-11-12T12:22:38.236Z,13976.00
2018-11-12T12:23:38.230Z,12004.00
2018-11-12T12:24:38.329Z,10380.00
2018-11-12T12:25:38.309Z,9040.00
2018-11-12T12:26:38.188Z,7972.00
2018-11-12T12:27:38.180Z,7240.00
2018-11-12T12:28:38.169Z,6376.00
2018-11-12T12:29:38.155Z,5648.00
2018-11-12T12:30:38.143Z,5172.00
2018-11-12T12:31:38.136Z,4948.00
2018-11-12T12:32:38.129Z,4884.00
2018-11-12T12:33:38.113Z,4936.00
2018-11-12T12:34:38.105Z,4916.00
2018-11-12T12:35:38.174Z,4868.00
2018-11-12T12:36:38.166Z,4896.00
2018-11-12T12:37:38.092Z,5052.00
2018-11-12T12:38:38.053Z,5244.00
2018-11-12T12:39:38.042Z,5376.00
2018-11-12T12:40:38.031Z,5380.00
2018-11-12T12:41:38.021Z,5476.00
2018-11-12T12:42:38.015Z,5720.00
2018-11-12T12:43:38.007Z,5972.00
2018-11-12T12:44:38.031Z,6508.00
2018-11-12T12:45:38.123Z,7040.00
2018-11-12T12:46:37.963Z,7456.00
2018-11-12T12:47:37.951Z,7460.00
2018-11-12T12:48:37.943Z,7168.00
2018-11-12T12:49:38.035Z,6816.00
2018-11-12T12:50:37.919Z,6772.00
2018-11-12T12:51:37.927Z,7392.00
2018-11-12T12:52:37.899Z,7784.00
2018-11-12T12:53:37.891Z,7640.00
2018-11-12T12:54:37.875Z,7328.00
2018-11-12T12:55:37.962Z,6872.00
2018-11-12T12:56:37.860Z,6456.00
2018-11-12T12:57:37.840Z,6204.00
2018-11-12T12:58:37.830Z,5924.00
2018-11-12T12:59:37.829Z,5920.00
2018-11-12T13:00:37.807Z,6012.00
2018-11-12T13:01:37.847Z,5812.00
2018-11-12T13:02:37.789Z,5584.00
2018-11-12T13:03:37.779Z,5384.00
2018-11-12T13:04:37.795Z,5160.00
2018-11-12T13:05:37.750Z,4712.00
2018-11-12T13:06:37.791Z,4584.00
2018-11-12T13:07:37.735Z,4628.00
2018-11-12T13:08:37.716Z,5684.00
2018-11-12T13:09:37.705Z,7864.00
2018-11-12T13:10:37.696Z,7368.00
2018-11-12T13:11:37.686Z,7416.00
2018-11-12T13:12:37.671Z,7260.00
2018-11-12T13:13:37.660Z,6640.00
2018-11-12T13:14:37.772Z,6440.00
2018-11-12T13:15:37.638Z,6012.00
2018-11-12T13:16:37.626Z,4864.00
2018-11-12T13:17:37.615Z,5164.00
2018-11-12T13:18:37.605Z,5236.00
2018-11-12T13:19:37.596Z,5120.00
2018-11-12T13:20:37.631Z,5280.00
2018-11-12T13:21:37.571Z,5148.00
2018-11-12T13:22:37.562Z,4864.00
2018-11-12T13:23:37.555Z,4432.00
2018-11-12T13:24:37.538Z,4244.00
2018-11-12T13:25:37.524Z,3196.00
2018-11-12T13:26:37.514Z,2732.00
2018-11-12T13:27:37.505Z,2808.00
2018-11-12T13:28:37.491Z,3344.00
2018-11-12T13:29:37.532Z,3176.00
2018-11-12T13:30:37.474Z,3080.00
2018-11-12T13:31:37.461Z,2784.00
2018-11-12T13:32:37.444Z,2516.00
2018-11-12T13:33:37.440Z,2608.00
2018-11-12T13:34:37.424Z,2812.00
2018-11-12T13:35:37.411Z,2800.00
2018-11-12T13:36:37.405Z,2752.00
2018-11-12T13:37:37.391Z,2832.00
2018-11-12T13:38:37.383Z,2904.00
2018-11-12T13:39:37.368Z,2836.00
2018-11-12T13:40:37.353Z,2796.00
2018-11-12T13:41:37.341Z,2792.00
2018-11-12T13:42:37.329Z,2788.00
2018-11-12T13:43:37.320Z,2764.00
2018-11-12T13:44:37.307Z,2760.00
2018-11-12T13:45:37.295Z,2776.00
2018-11-12T13:46:37.354Z,2784.00
2018-11-12T13:47:37.280Z,2776.00
2018-11-12T13:48:37.268Z,2720.00
2018-11-12T13:49:37.255Z,2684.00
2018-11-12T13:50:37.246Z,2640.00
2018-11-12T13:51:37.229Z,2528.00
2018-11-12T13:52:37.218Z,2432.00
2018-11-12T13:53:37.210Z,2352.00
2018-11-12T13:54:37.196Z,2304.00
2018-11-12T13:55:37.184Z,2304.00
2018-11-12T13:56:37.177Z,2316.00
2018-11-12T13:57:37.165Z,2296.00
2018-11-12T13:58:37.155Z,2268.00
2018-11-12T13:59:37.143Z,2232.00
2018-11-12T14:00:37.208Z,2196.00
2018-11-12T14:01:37.117Z,2196.00
2018-11-12T14:02:37.106Z,2204.00
2018-11-12T14:03:37.095Z,2228.00
2018-11-12T14:04:37.082Z,2260.00
2018-11-12T14:05:37.072Z,2260.00
2018-11-12T14:06:37.058Z,2232.00
2018-11-12T14:07:37.047Z,2172.00
2018-11-12T14:08:37.036Z,2108.00
2018-11-12T14:09:37.025Z,2064.00
2018-11-12T14:10:37.013Z,2036.00
2018-11-12T14:11:37.002Z,1992.00
2018-11-12T14:12:36.988Z,1944.00
2018-11-12T14:13:36.980Z,1956.00
2018-11-12T14:14:36.972Z,1996.00
2018-11-12T14:15:36.953Z,2012.00
2018-11-12T14:16:36.943Z,1992.00
2018-11-12T14:17:36.936Z,1968.00
2018-11-12T14:18:36.919Z,1904.00
2018-11-12T14:19:36.909Z,1824.00
2018-11-12T14:20:37.181Z,1756.00
2018-11-12T14:21:37.128Z,1704.00
2018-11-12T14:22:36.876Z,1668.00
2018-11-12T14:23:36.861Z,1636.00
2018-11-12T14:24:36.849Z,1592.00
2018-11-12T14:25:36.842Z,1540.00
2018-11-12T14:26:36.827Z,1500.00
2018-11-12T14:27:36.868Z,1484.00
2018-11-12T14:28:37.002Z,1464.00
2018-11-12T14:29:36.792Z,1440.00
2018-11-12T14:30:36.781Z,1412.00
2018-11-12T14:31:36.772Z,1360.00
2018-11-12T14:32:36.759Z,1292.00
2018-11-12T14:33:36.750Z,1228.00
2018-11-12T14:34:36.740Z,1172.00
2018-11-12T14:35:36.781Z,1120.00
2018-11-12T14:36:36.715Z,1076.00
2018-11-12T14:37:36.702Z,1040.00
2018-11-12T14:38:36.695Z,1016.00
2018-11-12T14:39:36.767Z,1004.00
2018-11-12T14:40:36.670Z,1016.00
2018-11-12T14:41:36.657Z,1020.00
2018-11-12T14:42:36.651Z,1000.00
2018-11-12T14:43:36.634Z,964.00
2018-11-12T14:44:36.625Z,928.00
2018-11-12T14:45:36.614Z,900.00
2018-11-12T14:46:36.606Z,860.00
2018-11-12T14:47:36.595Z,828.00
2018-11-12T14:49:01.062Z,780.00
2018-11-12T14:50:01.054Z,756.00
2018-11-12T14:51:01.045Z,724.00
2018-11-12T14:52:01.028Z,680.00
2018-11-12T14:53:01.025Z,640.00
2018-11-12T14:54:01.008Z,608.00
2018-11-12T14:55:01.020Z,580.00
2018-11-12T14:56:00.991Z,560.00
2018-11-12T14:57:00.977Z,544.00
2018-11-12T14:58:00.962Z,520.00
2018-11-12T14:59:00.969Z,488.00
2018-11-12T15:00:00.960Z,456.00
2018-11-12T15:01:00.962Z,440.00
2018-11-12T15:02:00.973Z,432.00
2018-11-12T15:03:00.924Z,432.00
2018-11-12T15:04:00.909Z,424.00
2018-11-12T15:05:00.912Z,412.00
2018-11-12T15:06:00.915Z,400.00
2018-11-12T15:07:00.863Z,384.00
2018-11-12T15:08:00.852Z,356.00
2018-11-12T15:09:00.984Z,316.00
2018-11-12T15:10:00.833Z,276.00
2018-11-12T15:11:00.823Z,252.00
2018-11-12T15:12:00.810Z,228.00
2018-11-12T15:13:25.286Z,192.00
2018-11-12T15:14:25.270Z,184.00
2018-11-12T15:15:25.255Z,172.00
2018-11-12T15:16:25.250Z,160.00
2018-11-12T15:17:25.233Z,152.00
2018-11-12T15:18:25.223Z,140.00
2018-11-12T15:19:25.212Z,132.00
2018-11-12T15:20:25.199Z,124.00
2018-11-12T15:21:25.191Z,116.00
2018-11-12T15:22:25.184Z,108.00
2018-11-12T15:23:25.168Z,100.00
2018-11-12T15:24:25.156Z,92.00
2018-11-12T15:25:25.153Z,88.00
2018-11-12T15:26:25.133Z,76.00
2018-11-12T15:27:25.128Z,68.00
2018-11-12T15:28:25.111Z,56.00
2018-11-12T15:29:25.134Z,52.00
2018-11-12T15:30:25.095Z,40.00
2018-11-12T15:31:25.080Z,36.00
2018-11-12T15:32:25.069Z,32.00
2018-11-12T15:33:25.057Z,32.00
2018-11-12T15:34:25.060Z,28.00
2018-11-12T15:35:25.035Z,20.00
2018-11-12T15:36:25.056Z,20.00
2018-11-12T15:37:25.099Z,16.00
2018-11-12T15:38:25.004Z,16.00
2018-11-12T15:39:24.990Z,12.00
2018-11-12T15:40:24.980Z,12.00
2018-11-12T15:41:24.970Z,8.00
2018-11-12T15:42:24.957Z,8.00
2018-11-12T15:43:25.036Z,8.00
2018-11-12T15:44:24.936Z,4.00
2018-11-12T15:45:24.925Z,8.00
2018-11-12T15:46:24.914Z,4.00
2018-11-12T15:47:24.905Z,4.00
2018-11-12T15:48:24.892Z,4.00
2018-11-12T15:49:24.882Z,4.00
2018-11-12T15:51:24.862Z,4.00
2018-11-12T15:52:24.849Z,4.00
2018-11-12T15:53:24.841Z,4.00
2018-11-12T15:54:24.826Z,4.00
2018-11-12T15:55:24.815Z,4.00
2018-11-12T15:56:24.805Z,4.00
2018-11-12T15:57:25.034Z,4.00
2018-11-12T15:58:24.809Z,4.00
2018-11-12T15:59:24.772Z,4.00
2018-11-12T16:00:24.760Z,4.00
2018-11-12T16:01:24.749Z,4.00
2018-11-12T16:02:24.737Z,4.00
2018-11-12T16:03:24.727Z,4.00
2018-11-12T16:04:24.719Z,4.00
2018-11-12T16:05:24.706Z,4.00
2018-11-12T16:06:24.739Z,4.00
2018-11-12T16:07:24.687Z,4.00
2018-11-12T16:08:24.673Z,4.00
2018-11-12T16:09:24.663Z,4.00
2018-11-12T16:10:24.655Z,4.00
2018-11-12T16:11:24.646Z,4.00
2018-11-12T16:12:24.671Z,4.00
2018-11-12T16:13:24.618Z,4.00
2018-11-12T16:14:24.611Z,4.00
2018-11-12T16:15:24.602Z,4.00
2018-11-12T16:16:24.585Z,4.00
2018-11-12T16:17:24.583Z,4.00
2018-11-12T16:18:24.564Z,4.00
2018-11-12T16:19:24.663Z,4.00
2018-11-12T16:20:24.546Z,4.00
2018-11-12T16:21:24.536Z,4.00
2018-11-12T16:22:24.520Z,4.00
2018-11-12T16:23:24.514Z,4.00
2018-11-12T16:24:24.498Z,4.00
2018-11-12T16:25:24.488Z,4.00
2018-11-12T16:26:24.482Z,4.00
2018-11-12T16:27:24.464Z,4.00
2018-11-12T16:28:24.456Z,4.00
2018-11-12T16:29:24.444Z,4.00
2018-11-12T16:30:24.433Z,4.00
2018-11-12T16:31:24.429Z,4.00
2018-11-12T16:32:24.427Z,4.00
2018-11-12T16:33:24.401Z,4.00
2018-11-12T16:34:24.396Z,4.00
2018-11-12T16:35:24.386Z,4.00
2018-11-12T16:36:24.371Z,4.00
2018-11-12T16:37:24.356Z,4.00
2018-11-12T16:38:24.348Z,4.00
2018-11-12T16:39:24.341Z,4.00
2018-11-12T16:40:24.435Z,4.00
2018-11-12T16:41:24.314Z,4.00
2018-11-12T16:42:24.309Z,4.00
2018-11-12T16:43:24.293Z,4.00
2018-11-12T16:44:24.281Z,4.00
2018-11-12T16:45:24.269Z,4.00
2018-11-12T16:46:24.259Z,4.00
2018-11-12T16:47:24.249Z,4.00
2018-11-12T16:48:24.239Z,4.00
2018-11-12T16:49:24.232Z,4.00
2018-11-12T16:50:24.217Z,4.00
2018-11-12T16:51:24.210Z,4.00
2018-11-12T16:52:24.198Z,4.00
